TOM9920 FMNN-FMCZ
Flight info
| Callsign | TOM9920 |
|---|---|
| Flight time | 0h 35m |
| Altitude | 24000 |
| Route | NSB DCT SOAVI SOAVI1D |
| Aircraft | B738/M-SDFGHIJ1RWXYZ/LB1 |
Departure
| Time | 2026-04-22 17:58 |
|---|---|
| Airport | Nosy Be-Fascene International Airport (FMNN) |
Arrival
| Time | 2026-04-22 18:34 |
|---|---|
| Airport | Dzaoudzi Pamandzi International Airport (FMCZ) |
| Time | Latitude | Longitude | Altitude | Speed | Heading |
|---|---|---|---|---|---|
| 2026-04-22 17:27 | -13.31847 | 48.31040 | 35 ft | 0 kts | 62° |
| 2026-04-22 17:55 | -13.31839 | 48.31057 | 34 ft | 6 kts | 53° |
| 2026-04-22 17:56 | -13.31816 | 48.31049 | 34 ft | 4 kts | 271° |
| 2026-04-22 17:56 | -13.31830 | 48.31024 | 33 ft | 4 kts | 230° |
| 2026-04-22 17:56 | -13.31848 | 48.31003 | 36 ft | 4 kts | 234° |
| 2026-04-22 17:56 | -13.31841 | 48.30977 | 36 ft | 4 kts | 305° |
| 2026-04-22 17:57 | -13.31821 | 48.30954 | 37 ft | 5 kts | 310° |
| 2026-04-22 17:57 | -13.31805 | 48.30920 | 37 ft | 5 kts | 314° |
| 2026-04-22 17:57 | -13.31784 | 48.30926 | 37 ft | 0 kts | 48° |
| 2026-04-22 17:57 | -13.31784 | 48.30927 | 37 ft | 2 kts | 48° |
| 2026-04-22 17:58 | -13.31589 | 48.31115 | 33 ft | 78 kts | 43° |
| 2026-04-22 17:58 | -13.31011 | 48.31666 | 29 ft | 146 kts | 43° |
| 2026-04-22 17:58 | -13.30218 | 48.32421 | 574 ft | 154 kts | 43° |
| 2026-04-22 17:58 | -13.29411 | 48.33189 | 1198 ft | 164 kts | 43° |
| 2026-04-22 17:59 | -13.28498 | 48.34055 | 1505 ft | 199 kts | 43° |
| 2026-04-22 17:59 | -13.27401 | 48.35096 | 1772 ft | 228 kts | 43° |
| 2026-04-22 17:59 | -13.26077 | 48.36137 | 2018 ft | 254 kts | 22° |
| 2026-04-22 17:59 | -13.24301 | 48.36247 | 2593 ft | 266 kts | 344° |
| 2026-04-22 18:00 | -13.23204 | 48.35671 | 3150 ft | 270 kts | 320° |
| 2026-04-22 18:00 | -13.21915 | 48.33486 | 4376 ft | 276 kts | 283° |
| 2026-04-22 18:00 | -13.21739 | 48.31508 | 5171 ft | 283 kts | 265° |
| 2026-04-22 18:00 | -13.22018 | 48.29474 | 5975 ft | 292 kts | 257° |
| 2026-04-22 18:01 | -13.22434 | 48.27397 | 6778 ft | 301 kts | 256° |
| 2026-04-22 18:01 | -13.22881 | 48.25293 | 7716 ft | 302 kts | 256° |
| 2026-04-22 18:01 | -13.23315 | 48.23213 | 8686 ft | 302 kts | 256° |
| 2026-04-22 18:01 | -13.23748 | 48.21065 | 9614 ft | 305 kts | 257° |
| 2026-04-22 18:02 | -13.24164 | 48.18940 | 10392 ft | 309 kts | 257° |
| 2026-04-22 18:02 | -13.24581 | 48.16760 | 11142 ft | 314 kts | 258° |
| 2026-04-22 18:02 | -13.24997 | 48.14548 | 11896 ft | 318 kts | 258° |
| 2026-04-22 18:02 | -13.25415 | 48.12296 | 12660 ft | 322 kts | 258° |
| 2026-04-22 18:03 | -13.25833 | 48.10026 | 13416 ft | 326 kts | 258° |
| 2026-04-22 18:03 | -13.26254 | 48.07720 | 14111 ft | 330 kts | 258° |
| 2026-04-22 18:03 | -13.26679 | 48.05391 | 14768 ft | 334 kts | 258° |
| 2026-04-22 18:03 | -13.27102 | 48.03060 | 15409 ft | 338 kts | 258° |
| 2026-04-22 18:04 | -13.27535 | 48.00671 | 16063 ft | 342 kts | 257° |
| 2026-04-22 18:04 | -13.27972 | 47.98254 | 16725 ft | 345 kts | 257° |
| 2026-04-22 18:04 | -13.28412 | 47.95824 | 17369 ft | 349 kts | 257° |
| 2026-04-22 18:04 | -13.28856 | 47.93363 | 18001 ft | 353 kts | 257° |
| 2026-04-22 18:05 | -13.29306 | 47.90875 | 18581 ft | 356 kts | 257° |
| 2026-04-22 18:05 | -13.29758 | 47.88366 | 19158 ft | 358 kts | 256° |
| 2026-04-22 18:05 | -13.30213 | 47.85840 | 19759 ft | 360 kts | 256° |
| 2026-04-22 18:05 | -13.30669 | 47.83310 | 20342 ft | 362 kts | 256° |
| 2026-04-22 18:06 | -13.31130 | 47.80748 | 20914 ft | 365 kts | 256° |
| 2026-04-22 18:06 | -13.31586 | 47.78214 | 21496 ft | 367 kts | 256° |
| 2026-04-22 18:06 | -13.32050 | 47.75629 | 22095 ft | 369 kts | 255° |
| 2026-04-22 18:06 | -13.32525 | 47.72998 | 22334 ft | 381 kts | 256° |
| 2026-04-22 18:07 | -13.32848 | 47.71208 | 22524 ft | 388 kts | 256° |
| 2026-04-22 18:07 | -13.33516 | 47.67502 | 22882 ft | 400 kts | 256° |
| 2026-04-22 18:07 | -13.34027 | 47.64661 | 23148 ft | 409 kts | 256° |
| 2026-04-22 18:07 | -13.34548 | 47.61754 | 23312 ft | 419 kts | 256° |
| 2026-04-22 18:08 | -13.35082 | 47.58774 | 23465 ft | 429 kts | 256° |
| 2026-04-22 18:08 | -13.35628 | 47.55725 | 23598 ft | 438 kts | 256° |
| 2026-04-22 18:08 | -13.36182 | 47.52624 | 23731 ft | 445 kts | 256° |
| 2026-04-22 18:08 | -13.36744 | 47.49472 | 23857 ft | 452 kts | 256° |
| 2026-04-22 18:09 | -13.37308 | 47.46309 | 23928 ft | 458 kts | 256° |
| 2026-04-22 18:09 | -13.37932 | 47.43084 | 23945 ft | 463 kts | 254° |
| 2026-04-22 18:09 | -13.38653 | 47.39837 | 23955 ft | 470 kts | 253° |
| 2026-04-22 18:09 | -13.39379 | 47.36535 | 23950 ft | 475 kts | 254° |
| 2026-04-22 18:10 | -13.40062 | 47.33217 | 23940 ft | 473 kts | 255° |
| 2026-04-22 18:10 | -13.40693 | 47.29916 | 23946 ft | 472 kts | 256° |
| 2026-04-22 18:10 | -13.41285 | 47.26642 | 23948 ft | 471 kts | 256° |
| 2026-04-22 18:10 | -13.41864 | 47.23330 | 23948 ft | 471 kts | 256° |
| 2026-04-22 18:11 | -13.42433 | 47.20017 | 23946 ft | 471 kts | 257° |
| 2026-04-22 18:11 | -13.43000 | 47.16702 | 23945 ft | 471 kts | 257° |
| 2026-04-22 18:11 | -13.43548 | 47.13501 | 23947 ft | 472 kts | 257° |
| 2026-04-22 18:11 | -13.44118 | 47.10179 | 23952 ft | 473 kts | 257° |
| 2026-04-22 18:12 | -13.44690 | 47.06852 | 23951 ft | 473 kts | 257° |
| 2026-04-22 18:12 | -13.45264 | 47.03519 | 23955 ft | 474 kts | 257° |
| 2026-04-22 18:12 | -13.45643 | 47.01315 | 23952 ft | 474 kts | 257° |
| 2026-04-22 18:12 | -13.46412 | 46.96846 | 23952 ft | 475 kts | 257° |
| 2026-04-22 18:13 | -13.46988 | 46.93497 | 23949 ft | 475 kts | 257° |
| 2026-04-22 18:13 | -13.47556 | 46.90190 | 23951 ft | 475 kts | 257° |
| 2026-04-22 18:13 | -13.48130 | 46.86846 | 23949 ft | 475 kts | 257° |
| 2026-04-22 18:13 | -13.48704 | 46.83501 | 23950 ft | 475 kts | 257° |
| 2026-04-22 18:14 | -13.49277 | 46.80157 | 23951 ft | 475 kts | 257° |
| 2026-04-22 18:14 | -13.49849 | 46.76813 | 23950 ft | 475 kts | 257° |
| 2026-04-22 18:14 | -13.50421 | 46.73470 | 23948 ft | 475 kts | 257° |
| 2026-04-22 18:14 | -13.50992 | 46.70129 | 23955 ft | 475 kts | 257° |
| 2026-04-22 18:15 | -13.51563 | 46.66788 | 23956 ft | 475 kts | 257° |
| 2026-04-22 18:15 | -13.52133 | 46.63448 | 23956 ft | 474 kts | 257° |
| 2026-04-22 18:15 | -13.52702 | 46.60109 | 23956 ft | 474 kts | 257° |
| 2026-04-22 18:15 | -13.53271 | 46.56770 | 23952 ft | 474 kts | 257° |
| 2026-04-22 18:16 | -13.53839 | 46.53431 | 23955 ft | 474 kts | 257° |
| 2026-04-22 18:16 | -13.54402 | 46.50126 | 23612 ft | 476 kts | 257° |
| 2026-04-22 18:16 | -13.54966 | 46.46798 | 22974 ft | 470 kts | 257° |
| 2026-04-22 18:16 | -13.55524 | 46.43505 | 22342 ft | 464 kts | 257° |
| 2026-04-22 18:17 | -13.56075 | 46.40253 | 21711 ft | 458 kts | 257° |
| 2026-04-22 18:17 | -13.56620 | 46.37038 | 21082 ft | 453 kts | 257° |
| 2026-04-22 18:17 | -13.57158 | 46.33862 | 20470 ft | 449 kts | 257° |
| 2026-04-22 18:17 | -13.57692 | 46.30716 | 19863 ft | 445 kts | 257° |
| 2026-04-22 18:18 | -13.58220 | 46.27593 | 19234 ft | 442 kts | 257° |
| 2026-04-22 18:18 | -13.58668 | 46.24517 | 18610 ft | 442 kts | 265° |
| 2026-04-22 18:18 | -13.58306 | 46.21386 | 17956 ft | 444 kts | 285° |
| 2026-04-22 18:18 | -13.57069 | 46.18498 | 17280 ft | 442 kts | 303° |
| 2026-04-22 18:19 | -13.55190 | 46.16029 | 16683 ft | 436 kts | 311° |
| 2026-04-22 18:19 | -13.53203 | 46.13681 | 16065 ft | 433 kts | 311° |
| 2026-04-22 18:19 | -13.51218 | 46.11367 | 15449 ft | 429 kts | 312° |
| 2026-04-22 18:19 | -13.49251 | 46.09069 | 14832 ft | 426 kts | 311° |
| 2026-04-22 18:20 | -13.47312 | 46.06786 | 14228 ft | 422 kts | 311° |
| 2026-04-22 18:20 | -13.45396 | 46.04513 | 13611 ft | 419 kts | 311° |
| 2026-04-22 18:20 | -13.43521 | 46.02278 | 12976 ft | 416 kts | 311° |
| 2026-04-22 18:20 | -13.41648 | 46.00038 | 12371 ft | 411 kts | 311° |
| 2026-04-22 18:21 | -13.39795 | 45.97818 | 11782 ft | 407 kts | 311° |
| 2026-04-22 18:21 | -13.37964 | 45.95624 | 11203 ft | 402 kts | 311° |
| 2026-04-22 18:21 | -13.36158 | 45.93460 | 10899 ft | 391 kts | 311° |
| 2026-04-22 18:21 | -13.34420 | 45.91378 | 10707 ft | 377 kts | 311° |
| 2026-04-22 18:22 | -13.32742 | 45.89368 | 10524 ft | 364 kts | 311° |
| 2026-04-22 18:22 | -13.31119 | 45.87425 | 10379 ft | 353 kts | 311° |
| 2026-04-22 18:22 | -13.30071 | 45.86172 | 10277 ft | 345 kts | 311° |
| 2026-04-22 18:22 | -13.28535 | 45.84334 | 10140 ft | 335 kts | 311° |
| 2026-04-22 18:23 | -13.27041 | 45.82547 | 10002 ft | 325 kts | 312° |
| 2026-04-22 18:23 | -13.25595 | 45.80819 | 9975 ft | 312 kts | 312° |
| 2026-04-22 18:23 | -13.24172 | 45.79118 | 9503 ft | 315 kts | 312° |
| 2026-04-22 18:24 | -13.21319 | 45.75712 | 8794 ft | 313 kts | 312° |
| 2026-04-22 18:24 | -13.19904 | 45.74022 | 8466 ft | 311 kts | 312° |
| 2026-04-22 18:24 | -13.17095 | 45.70668 | 7817 ft | 308 kts | 311° |
| 2026-04-22 18:25 | -13.15704 | 45.69006 | 7499 ft | 306 kts | 311° |
| 2026-04-22 18:25 | -13.14319 | 45.67354 | 7193 ft | 304 kts | 311° |
| 2026-04-22 18:25 | -13.12974 | 45.65747 | 6971 ft | 292 kts | 311° |
| 2026-04-22 18:26 | -13.10366 | 45.62634 | 6041 ft | 289 kts | 311° |
| 2026-04-22 18:26 | -13.09062 | 45.61080 | 5604 ft | 286 kts | 311° |
| 2026-04-22 18:26 | -13.07774 | 45.59544 | 5189 ft | 281 kts | 311° |
| 2026-04-22 18:26 | -13.06495 | 45.58018 | 4844 ft | 282 kts | 311° |
| 2026-04-22 18:27 | -13.05230 | 45.56508 | 4711 ft | 274 kts | 310° |
| 2026-04-22 18:27 | -13.04007 | 45.55050 | 4634 ft | 265 kts | 310° |
| 2026-04-22 18:27 | -13.02826 | 45.53644 | 4547 ft | 256 kts | 311° |
| 2026-04-22 18:27 | -13.01689 | 45.52289 | 4486 ft | 246 kts | 311° |
| 2026-04-22 18:28 | -13.00591 | 45.50981 | 4401 ft | 237 kts | 311° |
| 2026-04-22 18:28 | -12.99707 | 45.49619 | 4332 ft | 224 kts | 286° |
| 2026-04-22 18:28 | -12.99350 | 45.48116 | 4182 ft | 213 kts | 284° |
| 2026-04-22 18:28 | -12.98983 | 45.46692 | 4106 ft | 200 kts | 284° |
| 2026-04-22 18:29 | -12.98632 | 45.45345 | 4045 ft | 199 kts | 284° |
| 2026-04-22 18:29 | -12.98273 | 45.43960 | 3987 ft | 204 kts | 284° |
| 2026-04-22 18:29 | -12.97905 | 45.42536 | 3759 ft | 207 kts | 284° |
| 2026-04-22 18:29 | -12.97540 | 45.41123 | 3535 ft | 202 kts | 284° |
| 2026-04-22 18:30 | -12.96983 | 45.39842 | 3290 ft | 195 kts | 317° |
| 2026-04-22 18:30 | -12.94893 | 45.38289 | 2932 ft | 181 kts | 324° |
| 2026-04-22 18:30 | -12.93867 | 45.37532 | 2762 ft | 184 kts | 325° |
| 2026-04-22 18:31 | -12.92818 | 45.36758 | 2576 ft | 186 kts | 324° |
| 2026-04-22 18:31 | -12.91766 | 45.35981 | 2374 ft | 186 kts | 324° |
| 2026-04-22 18:31 | -12.90714 | 45.35205 | 2120 ft | 187 kts | 324° |
| 2026-04-22 18:31 | -12.89687 | 45.34445 | 1889 ft | 180 kts | 324° |
| 2026-04-22 18:32 | -12.88698 | 45.33716 | 1705 ft | 169 kts | 323° |
| 2026-04-22 18:32 | -12.87760 | 45.33021 | 1443 ft | 161 kts | 324° |
| 2026-04-22 18:32 | -12.86871 | 45.32362 | 1275 ft | 158 kts | 324° |
| 2026-04-22 18:32 | -12.85994 | 45.31713 | 1041 ft | 153 kts | 323° |
| 2026-04-22 18:33 | -12.85166 | 45.31065 | 881 ft | 147 kts | 316° |
| 2026-04-22 18:33 | -12.84436 | 45.30295 | 711 ft | 150 kts | 320° |
| 2026-04-22 18:33 | -12.83545 | 45.29766 | 520 ft | 149 kts | 331° |
| 2026-04-22 18:33 | -12.82653 | 45.29241 | 308 ft | 146 kts | 328° |
| 2026-04-22 18:34 | -12.81783 | 45.28724 | 118 ft | 144 kts | 329° |
| 2026-04-22 18:34 | -12.80965 | 45.28235 | 34 ft | 103 kts | 330° |
| 2026-04-22 18:34 | -12.80639 | 45.28040 | 34 ft | 19 kts | 329° |
| 2026-04-22 18:34 | -12.80544 | 45.27984 | 34 ft | 14 kts | 330° |
| 2026-04-22 18:35 | -12.80483 | 45.27948 | 37 ft | 10 kts | 331° |
| 2026-04-22 18:35 | -12.80449 | 45.27982 | 37 ft | 8 kts | 68° |
| 2026-04-22 18:35 | -12.80425 | 45.28029 | 37 ft | 7 kts | 61° |
| 2026-04-22 18:35 | -12.80400 | 45.28075 | 37 ft | 7 kts | 58° |
| 2026-04-22 18:36 | -12.80374 | 45.28118 | 37 ft | 7 kts | 54° |
| 2026-04-22 18:36 | -12.80329 | 45.28131 | 37 ft | 7 kts | 6° |
| 2026-04-22 18:36 | -12.80313 | 45.28165 | 37 ft | 6 kts | 81° |
| 2026-04-22 18:36 | -12.80311 | 45.28184 | 37 ft | 0 kts | 83° |